Terminal Aerodrome Forecast
Issued by NWS

Home | Current Version | Previous Version | Text Only | Print | Product List | Glossary On
Versions: 1 2 3 4 5 6 7 8 9 10 11 12 13 14 15 16 17 18 19 20 21 22 23 24 25 26 27 28 29 30 31
000
FTUS41 KOKX 261100
TAFTEB
TAF
KTEB 261120Z 2612/2712 04009KT 6SM -SN BKN030
      TEMPO 2612/2615 3SM -SN BR BKN015
     FM261500 04011KT 1SM -SN BR BKN007
     FM261800 04013G20KT 3/4SM -SN BR BKN007
     FM262300 02016G24KT 1/2SM SN FZFG VV005
     FM270400 01018G28KT 1/4SM +SN FZFG VV003=

USA.gov is the U.S. government's official web portal to all federal, state and local government web resources and services.